Time;durP1;ratioP1;P1;durP2;ratioP2;P2;SDS_P1;SDS_P2;PMS_P1;PMS_P2;Temp;Humidity;BMP_temperature;BMP_pressure;BME280_temperature;BME280_humidity;BME280_pressure;Samples;Min_cycle;Max_cycle;Signal;HPM_P1;HPM_P2
2022/01/22 00:02:16;;;;;;;;;;;-1.10;99.90;;;;;;5114486;28;19928;-50
2022/01/22 00:04:44;;;;;;;;;;;-1.10;99.90;;;;;;5114861;28;20460;-50
2022/01/22 00:07:11;;;;;;;;;;;-1.10;99.90;;;;;;5115039;28;19923;-50
2022/01/22 00:09:40;;;;;;;;;;;-1.10;99.90;;;;;;5114598;28;20019;-50
2022/01/22 00:12:11;;;;;;;;;;;-1.10;99.90;;;;;;5113730;28;19924;-50
2022/01/22 00:14:39;;;;;;;;;;;-1.00;99.90;;;;;;5114555;28;19924;-50
2022/01/22 00:17:05;;;;;;;;;;;-1.00;99.90;;;;;;5114455;28;19934;-51
2022/01/22 00:19:32;;;;;;;;;;;-1.20;99.90;;;;;;5114212;28;19924;-50
2022/01/22 00:22:00;;;;;;;;;;;-1.20;99.90;;;;;;5113446;28;19928;-51
2022/01/22 00:24:36;;;;;;;;;;;-1.30;99.90;;;;;;5114280;28;20347;-51
2022/01/22 00:27:03;;;;;;;;;;;-1.30;99.90;;;;;;5114349;28;19930;-51
2022/01/22 00:29:30;;;;;;;;;;;-1.30;99.90;;;;;;5114065;28;19928;-50
2022/01/22 00:31:56;;;;;;;;;;;-1.20;99.90;;;;;;5114035;28;19976;-51
2022/01/22 00:34:23;;;;;;;;;;;-1.20;99.90;;;;;;5114362;28;19924;-51
2022/01/22 00:36:50;;;;;;;;;;;-1.20;99.90;;;;;;5114323;28;19924;-50
2022/01/22 00:39:18;;;;;;;;;;;-1.10;99.90;;;;;;5113688;28;19927;-50
2022/01/22 00:41:45;;;;;;;;;;;-1.10;99.90;;;;;;5113665;28;19924;-50
2022/01/22 00:44:12;;;;;;;;;;;-1.10;99.90;;;;;;5112850;28;19924;-50
2022/01/22 00:46:38;;;;;;;;;;;-1.10;99.90;;;;;;5114029;28;20441;-50
2022/01/22 00:49:05;;;;;;;;;;;-1.20;99.90;;;;;;5113435;28;19928;-50
2022/01/22 00:51:32;;;;;;;;;;;-1.10;99.90;;;;;;5113409;28;19977;-50
2022/01/22 00:53:58;;;;;;;;;;;-1.10;99.90;;;;;;5113693;28;19932;-50
2022/01/22 00:56:27;;;;;;;;;;;-1.30;99.90;;;;;;5113925;28;19924;-51
2022/01/22 00:58:53;;;;;;;;;;;-1.30;99.90;;;;;;5113508;28;19923;-51
2022/01/22 01:01:20;;;;;;;;;;;-1.40;99.90;;;;;;5113504;28;19924;-50
2022/01/22 01:03:47;;;;;;;;;;;-1.30;99.90;;;;;;5114054;28;19976;-50
2022/01/22 01:06:14;;;;;;;;;;;-1.20;99.90;;;;;;5113661;28;19928;-50
2022/01/22 01:08:40;;;;;;;;;;;-1.20;99.90;;;;;;5113145;28;20385;-50
2022/01/22 01:11:07;;;;;;;;;;;-1.30;99.90;;;;;;5112729;28;19969;-49
2022/01/22 01:13:41;;;;;;;;;;;-1.40;99.90;;;;;;5113546;28;20171;-49
2022/01/22 01:16:18;;;;;;;;;;;-1.50;99.90;;;;;;5113831;28;19934;-49
2022/01/22 01:32:42;;;;;;;;;;;-1.70;99.90;;;;;;5112574;28;19931;-49
2022/01/22 01:35:09;;;;;;;;;;;-1.80;99.90;;;;;;5112344;28;19935;-49
2022/01/22 01:37:36;;;;;;;;;;;-1.90;99.90;;;;;;5115057;28;19931;-49
2022/01/22 01:40:06;;;;;;;;;;;-1.90;99.90;;;;;;5112877;28;19924;-49
2022/01/22 01:42:41;;;;;;;;;;;-2.00;99.90;;;;;;5112492;28;19951;-49
2022/01/22 01:45:10;;;;;;;;;;;-2.10;99.90;;;;;;5113243;28;19923;-49
2022/01/22 01:47:38;;;;;;;;;;;-2.10;99.90;;;;;;5112681;28;20385;-49
2022/01/22 01:50:06;;;;;;;;;;;-2.10;99.90;;;;;;5112888;28;19923;-50
2022/01/22 01:52:40;;;;;;;;;;;-2.10;99.90;;;;;;5112320;28;20409;-50
2022/01/22 01:55:10;;;;;;;;;;;-1.90;99.90;;;;;;5113088;28;19924;-50
2022/01/22 01:57:42;;;;;;;;;;;-1.90;99.90;;;;;;5113058;28;19954;-50
2022/01/22 02:00:12;;;;;;;;;;;-1.90;99.90;;;;;;5113141;28;19930;-50
2022/01/22 02:02:40;;;;;;;;;;;-1.80;99.90;;;;;;5112562;28;20432;-50
2022/01/22 02:05:08;;;;;;;;;;;-1.90;99.90;;;;;;5112989;28;19924;-50
2022/01/22 02:07:38;;;;;;;;;;;-1.90;99.90;;;;;;5113142;28;19924;-50
2022/01/22 02:10:05;;;;;;;;;;;-1.80;99.90;;;;;;5112332;28;19966;-50
2022/01/22 02:12:57;;;;;;;;;;;-1.80;99.90;;;;;;5112349;28;19949;-50
2022/01/22 02:23:43;;;;;;;;;;;-1.60;99.90;;;;;;5112762;28;19949;-50
2022/01/22 02:26:11;;;;;;;;;;;-1.40;99.90;;;;;;5112944;28;19971;-50
2022/01/22 02:28:38;;;;;;;;;;;-1.40;99.90;;;;;;5112359;28;19924;-50
2022/01/22 02:31:11;;;;;;;;;;;-1.30;99.90;;;;;;5112804;28;19928;-50
2022/01/22 02:33:46;;;;;;;;;;;-1.40;99.90;;;;;;5112243;28;19977;-50
2022/01/22 02:36:19;;;;;;;;;;;-1.40;99.90;;;;;;5112795;28;20311;-50
2022/01/22 02:38:53;;;;;;;;;;;-1.50;99.90;;;;;;5111956;28;19924;-50
2022/01/22 02:41:23;;;;;;;;;;;-1.40;99.90;;;;;;5112605;28;20419;-50
2022/01/22 02:43:49;;;;;;;;;;;-1.40;99.90;;;;;;5111640;28;19955;-50
2022/01/22 02:46:17;;;;;;;;;;;-1.30;99.90;;;;;;5113933;28;20350;-50
2022/01/22 02:48:44;;;;;;;;;;;-1.30;99.90;;;;;;5115539;28;19924;-50
2022/01/22 02:51:11;;;;;;;;;;;-1.30;99.90;;;;;;5116030;28;19923;-50
2022/01/22 02:53:38;;;;;;;;;;;-1.30;99.90;;;;;;5116240;28;20349;-50
2022/01/22 02:56:07;;;;;;;;;;;-1.30;99.90;;;;;;5115426;28;20402;-50
2022/01/22 02:58:34;;;;;;;;;;;-1.30;99.90;;;;;;5115128;28;19963;-50
2022/01/22 03:01:01;;;;;;;;;;;-1.30;99.90;;;;;;5115979;28;19927;-50
2022/01/22 03:03:27;;;;;;;;;;;-1.30;99.90;;;;;;5115966;28;19924;-50
2022/01/22 03:05:54;;;;;;;;;;;-1.20;99.90;;;;;;5116060;28;19928;-50
2022/01/22 03:08:25;;;;;;;;;;;-1.10;99.90;;;;;;5115476;28;20386;-50
2022/01/22 03:10:53;;;;;;;;;;;-1.30;99.90;;;;;;5115452;28;19982;-50
2022/01/22 03:16:27;;;;;;;;;;;-1.20;99.90;;;;;;5115486;28;20289;-50
2022/01/22 03:19:00;;;;;;;;;;;-1.20;99.90;;;;;;5118451;28;19923;-49
2022/01/22 03:21:40;;;;;;;;;;;-1.20;99.90;;;;;;5125229;28;19924;-50
2022/01/22 03:29:39;;;;;;;;;;;-1.20;99.90;;;;;;5115070;28;19926;-50
2022/01/22 03:32:06;;;;;;;;;;;-1.30;99.90;;;;;;5115488;28;20023;-50
2022/01/22 03:34:39;;;;;;;;;;;-1.40;99.90;;;;;;5115013;28;20448;-50
2022/01/22 03:37:06;;;;;;;;;;;-1.40;99.90;;;;;;5115189;28;20324;-50
2022/01/22 03:39:33;;;;;;;;;;;-1.20;99.90;;;;;;5114520;28;19924;-50
2022/01/22 03:42:00;;;;;;;;;;;-1.30;99.90;;;;;;5114633;28;20430;-50
2022/01/22 03:44:27;;;;;;;;;;;-1.30;99.90;;;;;;5115273;28;19923;-50
2022/01/22 03:46:55;;;;;;;;;;;-1.30;99.90;;;;;;5114664;28;19927;-50
2022/01/22 03:49:22;;;;;;;;;;;-1.30;99.90;;;;;;5114108;28;19996;-50
2022/01/22 03:51:48;;;;;;;;;;;-1.30;99.90;;;;;;5114816;28;19923;-50
2022/01/22 03:54:15;;;;;;;;;;;-1.30;99.90;;;;;;5115005;28;19984;-50
2022/01/22 03:56:45;;;;;;;;;;;-1.20;99.90;;;;;;5114392;28;19924;-50
2022/01/22 03:59:12;;;;;;;;;;;-1.10;99.90;;;;;;5113478;28;19923;-50
2022/01/22 04:02:07;;;;;;;;;;;-1.20;99.90;;;;;;5114257;28;19924;-50
2022/01/22 04:04:38;;;;;;;;;;;-1.30;99.90;;;;;;5114438;28;19927;-49
2022/01/22 04:09:47;;;;;;;;;;;-1.10;99.90;;;;;;5113265;28;19964;-50
2022/01/22 04:12:16;;;;;;;;;;;-1.10;99.90;;;;;;5109579;28;19953;-50
2022/01/22 04:14:48;;;;;;;;;;;-1.00;99.90;;;;;;5113764;28;19928;-51
2022/01/22 04:17:37;;;;;;;;;;;-1.00;99.90;;;;;;5113952;28;19924;-50
2022/01/22 04:25:37;;;;;;;;;;;-1.00;99.90;;;;;;5109011;28;20391;-50
2022/01/22 04:28:07;;;;;;;;;;;-0.90;99.90;;;;;;5113128;28;19923;-50
2022/01/22 04:30:34;;;;;;;;;;;-0.90;99.90;;;;;;5112957;28;19924;-50
2022/01/22 04:33:04;;;;;;;;;;;-0.90;99.90;;;;;;5112958;28;19940;-50
2022/01/22 04:35:33;;;;;;;;;;;-0.80;99.90;;;;;;5113148;28;19931;-49
2022/01/22 04:38:00;;;;;;;;;;;-0.90;99.90;;;;;;5108743;28;19924;-49
2022/01/22 04:40:26;;;;;;;;;;;-0.80;99.90;;;;;;5112298;28;20014;-49
2022/01/22 04:42:54;;;;;;;;;;;-0.80;99.90;;;;;;5108903;28;19931;-49
2022/01/22 04:45:28;;;;;;;;;;;-0.70;99.90;;;;;;5113028;28;19927;-49
2022/01/22 04:48:10;;;;;;;;;;;-0.80;99.90;;;;;;5121782;22;20708;-47
2022/01/22 04:56:06;;;;;;;;;;;-0.80;99.90;;;;;;5032627;28;19971;-48
2022/01/22 04:58:33;;;;;;;;;;;-0.80;99.90;;;;;;5036041;28;19978;-47
2022/01/22 05:01:00;;;;;;;;;;;-0.90;99.90;;;;;;5047965;28;20378;-47
2022/01/22 05:03:27;;;;;;;;;;;-0.90;99.90;;;;;;5051471;28;20279;-48
2022/01/22 05:05:55;;;;;;;;;;;-0.90;99.90;;;;;;5051582;28;19979;-47
2022/01/22 05:08:21;;;;;;;;;;;-0.90;99.90;;;;;;5051243;28;19929;-47
2022/01/22 05:10:48;;;;;;;;;;;-0.90;99.90;;;;;;5051268;28;19925;-47
2022/01/22 05:13:15;;;;;;;;;;;-0.80;99.90;;;;;;5051726;28;20011;-47
2022/01/22 05:15:42;;;;;;;;;;;-0.70;99.90;;;;;;5051818;28;19983;-47
2022/01/22 05:18:09;;;;;;;;;;;-0.70;99.90;;;;;;5046405;28;19978;-47
2022/01/22 05:20:44;;;;;;;;;;;-0.70;99.90;;;;;;5051237;28;19964;-47
2022/01/22 05:23:16;;;;;;;;;;;-0.60;99.90;;;;;;5051206;28;19968;-47
2022/01/22 05:25:47;;;;;;;;;;;-0.60;99.90;;;;;;5051426;28;20391;-47
2022/01/22 05:28:58;;;;;;;;;;;-0.50;99.90;;;;;;5051234;28;20015;-47
2022/01/22 05:37:01;;;;;;;;;;;-0.50;99.90;;;;;;5051342;28;19935;-47
2022/01/22 05:39:30;;;;;;;;;;;-0.50;99.90;;;;;;5049289;28;19928;-49
2022/01/22 05:41:57;;;;;;;;;;;-0.50;99.90;;;;;;5050902;28;19925;-48
2022/01/22 05:44:24;;;;;;;;;;;-0.40;99.90;;;;;;5051214;28;19929;-49
2022/01/22 05:46:53;;;;;;;;;;;-0.50;99.90;;;;;;5050967;28;19924;-47
2022/01/22 05:49:23;;;;;;;;;;;-0.50;99.90;;;;;;5050296;28;19925;-48
2022/01/22 05:51:52;;;;;;;;;;;-0.50;99.90;;;;;;5050731;28;19925;-48
2022/01/22 05:54:46;;;;;;;;;;;-0.50;99.90;;;;;;5044754;28;19924;-48
2022/01/22 05:59:59;;;;;;;;;;;-0.50;99.90;;;;;;5050395;28;20445;-47
2022/01/22 06:02:25;;;;;;;;;;;-0.40;99.90;;;;;;5050216;28;19929;-48
2022/01/22 06:04:52;;;;;;;;;;;-0.40;99.90;;;;;;5050767;28;19928;-48
2022/01/22 06:07:19;;;;;;;;;;;-0.30;99.90;;;;;;5050882;28;19929;-48
2022/01/22 06:10:02;;;;;;;;;;;-0.30;99.90;;;;;;5045984;28;19932;-48
2022/01/22 06:12:42;;;;;;;;;;;-0.30;99.90;;;;;;5051124;28;19925;-47
2022/01/22 06:15:09;;;;;;;;;;;-0.20;99.90;;;;;;5050115;28;19936;-47
2022/01/22 06:17:36;;;;;;;;;;;-0.20;99.90;;;;;;5046788;28;20345;-48
2022/01/22 06:20:03;;;;;;;;;;;-0.20;99.90;;;;;;5045771;28;19990;-48
2022/01/22 06:22:30;;;;;;;;;;;-0.40;99.90;;;;;;5054585;28;20287;-48
2022/01/22 06:24:57;;;;;;;;;;;-0.50;99.90;;;;;;5054778;28;20436;-48
2022/01/22 06:27:24;;;;;;;;;;;-0.60;99.90;;;;;;5052996;28;19925;-49
2022/01/22 06:29:52;;;;;;;;;;;-0.50;99.90;;;;;;5054233;28;19929;-48
2022/01/22 06:32:19;;;;;;;;;;;-0.40;99.90;;;;;;5053098;28;19932;-48
2022/01/22 06:34:45;;;;;;;;;;;-0.40;99.90;;;;;;5042037;28;20046;-48
2022/01/22 06:37:13;;;;;;;;;;;-0.40;99.90;;;;;;5052291;28;19936;-47
2022/01/22 06:41:44;;;;;;;;;;;-0.40;99.90;;;;;;5053402;28;19925;-47
2022/01/22 06:42:29;;;;;;;;;;;-0.40;99.90;;;;;;5054616;28;19924;-48
2022/01/22 06:44:57;;;;;;;;;;;-0.30;99.90;;;;;;5055060;28;19927;-47
2022/01/22 06:47:24;;;;;;;;;;;-0.30;99.90;;;;;;5054256;28;20302;-48
2022/01/22 06:49:51;;;;;;;;;;;-0.30;99.90;;;;;;5053144;28;20449;-47
2022/01/22 06:52:18;;;;;;;;;;;-0.40;99.90;;;;;;5054737;28;19925;-48
2022/01/22 06:54:45;;;;;;;;;;;-0.30;99.90;;;;;;5054288;28;19980;-48
2022/01/22 06:57:13;;;;;;;;;;;-0.40;99.90;;;;;;5054436;28;19924;-47
2022/01/22 06:59:39;;;;;;;;;;;-0.40;99.90;;;;;;5053310;28;19929;-47
2022/01/22 07:02:07;;;;;;;;;;;-0.50;99.90;;;;;;5048873;28;19970;-47
2022/01/22 07:04:37;;;;;;;;;;;-0.50;99.90;;;;;;5053400;28;20391;-46
2022/01/22 07:07:04;;;;;;;;;;;-0.60;99.90;;;;;;5054221;28;19931;-48
2022/01/22 07:09:31;;;;;;;;;;;-0.50;99.90;;;;;;5052939;28;19979;-47
2022/01/22 07:11:58;;;;;;;;;;;-0.40;99.90;;;;;;5051664;28;19979;-47
2022/01/22 07:14:26;;;;;;;;;;;-0.40;99.90;;;;;;5051279;28;20350;-48
2022/01/22 07:16:53;;;;;;;;;;;-0.30;99.90;;;;;;5053209;28;20358;-48
2022/01/22 07:19:21;;;;;;;;;;;-0.20;99.90;;;;;;5053514;28;19978;-48
2022/01/22 07:21:57;;;;;;;;;;;-0.20;99.90;;;;;;5049492;28;19933;-47
2022/01/22 07:24:23;;;;;;;;;;;-0.30;99.90;;;;;;5052835;28;19943;-48
2022/01/22 07:26:50;;;;;;;;;;;-0.30;99.90;;;;;;5052557;28;20333;-47
2022/01/22 07:29:17;;;;;;;;;;;-0.40;99.90;;;;;;5053161;28;19925;-47
2022/01/22 07:31:44;;;;;;;;;;;-0.40;99.90;;;;;;5049095;28;19925;-48
2022/01/22 07:34:11;;;;;;;;;;;-0.40;99.90;;;;;;5050810;28;19925;-47
2022/01/22 07:36:39;;;;;;;;;;;-0.30;99.90;;;;;;5048647;28;19924;-47
2022/01/22 07:39:06;;;;;;;;;;;-0.30;99.90;;;;;;5052899;28;19959;-48
2022/01/22 07:41:32;;;;;;;;;;;-0.40;99.90;;;;;;5048012;28;19929;-48
2022/01/22 07:43:59;;;;;;;;;;;-0.50;99.90;;;;;;5052952;28;20335;-47
2022/01/22 07:46:27;;;;;;;;;;;-0.40;99.90;;;;;;5052091;28;20331;-48
2022/01/22 07:48:54;;;;;;;;;;;-0.30;99.90;;;;;;5052159;28;19953;-48
2022/01/22 07:51:20;;;;;;;;;;;-0.30;99.90;;;;;;5049844;28;19928;-48
2022/01/22 07:53:49;;;;;;;;;;;-0.30;99.90;;;;;;5053184;28;19924;-47
2022/01/22 07:56:16;;;;;;;;;;;-0.30;99.90;;;;;;5048851;28;19925;-48
2022/01/22 07:58:42;;;;;;;;;;;-0.30;99.90;;;;;;5052325;28;19924;-48
2022/01/22 08:01:09;;;;;;;;;;;-0.30;99.90;;;;;;5052931;28;19979;-48
2022/01/22 08:03:36;;;;;;;;;;;-0.20;99.90;;;;;;5052960;28;20390;-49
2022/01/22 08:06:03;;;;;;;;;;;-0.20;99.90;;;;;;5053208;28;19929;-48
2022/01/22 08:08:30;;;;;;;;;;;-0.10;99.90;;;;;;5052008;28;19998;-48
2022/01/22 08:10:58;;;;;;;;;;;-0.10;99.90;;;;;;5051037;28;19929;-48
2022/01/22 08:13:25;;;;;;;;;;;-0.10;99.90;;;;;;5052910;28;19968;-49
2022/01/22 08:15:52;;;;;;;;;;;0.00;99.90;;;;;;5046658;28;19931;-49
2022/01/22 08:18:19;;;;;;;;;;;0.10;99.90;;;;;;5051168;28;19986;-48
2022/01/22 08:20:47;;;;;;;;;;;0.00;99.90;;;;;;5052492;28;20344;-48
2022/01/22 08:23:16;;;;;;;;;;;0.10;99.90;;;;;;5052855;28;20062;-50
2022/01/22 08:25:46;;;;;;;;;;;0.10;99.90;;;;;;5052644;28;19937;-49
2022/01/22 08:31:05;;;;;;;;;;;0.00;99.90;;;;;;5033078;28;19932;-49
2022/01/22 08:35:52;;;;;;;;;;;0.10;99.90;;;;;;5033151;28;19987;-49
2022/01/22 08:36:19;;;;;;;;;;;0.10;99.90;;;;;;5052410;28;19928;-50
2022/01/22 08:38:46;;;;;;;;;;;0.20;99.90;;;;;;5051515;28;19920;-49
2022/01/22 08:41:13;;;;;;;;;;;0.30;99.90;;;;;;5052486;28;20310;-48
2022/01/22 08:43:41;;;;;;;;;;;0.20;99.90;;;;;;5050561;28;19925;-48
2022/01/22 08:46:07;;;;;;;;;;;0.20;99.90;;;;;;5062714;28;20275;-50
2022/01/22 08:48:34;;;;;;;;;;;0.30;99.90;;;;;;5050477;28;19925;-51
2022/01/22 08:51:01;;;;;;;;;;;0.30;99.90;;;;;;5051602;28;19929;-48
2022/01/22 08:53:28;;;;;;;;;;;0.40;99.90;;;;;;5051906;28;19982;-49
2022/01/22 08:55:56;;;;;;;;;;;0.30;99.90;;;;;;5051691;28;19935;-49
2022/01/22 08:58:23;;;;;;;;;;;0.40;99.90;;;;;;5051268;28;19928;-49
2022/01/22 09:00:51;;;;;;;;;;;0.30;99.90;;;;;;5052137;28;19951;-49
2022/01/22 09:03:19;;;;;;;;;;;0.40;99.90;;;;;;5052272;28;19924;-49
2022/01/22 09:05:47;;;;;;;;;;;0.40;99.90;;;;;;5052228;28;19924;-48
2022/01/22 09:08:20;;;;;;;;;;;0.40;99.90;;;;;;5051488;28;20330;-48
2022/01/22 09:10:46;;;;;;;;;;;0.40;99.90;;;;;;5052288;28;19925;-50
2022/01/22 09:13:14;;;;;;;;;;;0.50;99.90;;;;;;5051734;28;19929;-49
2022/01/22 09:15:40;;;;;;;;;;;0.60;99.90;;;;;;5052089;28;19978;-49
2022/01/22 09:18:11;;;;;;;;;;;0.50;99.90;;;;;;5051408;28;19970;-49
2022/01/22 09:21:01;;;;;;;;;;;0.40;99.90;;;;;;5049676;28;19925;-49
2022/01/22 09:23:28;;;;;;;;;;;0.60;99.90;;;;;;5051937;28;20041;-48
2022/01/22 09:25:54;;;;;;;;;;;0.70;99.90;;;;;;5051941;28;20578;-49
2022/01/22 09:28:21;;;;;;;;;;;0.70;99.90;;;;;;5051228;28;19937;-49
2022/01/22 09:30:48;;;;;;;;;;;0.80;99.90;;;;;;5051949;28;19928;-49
2022/01/22 09:33:16;;;;;;;;;;;0.70;99.90;;;;;;5051705;28;20590;-49
2022/01/22 09:35:43;;;;;;;;;;;0.80;99.90;;;;;;5050261;28;19978;-50
2022/01/22 09:38:13;;;;;;;;;;;0.80;99.90;;;;;;5050979;28;20390;-49
2022/01/22 09:40:40;;;;;;;;;;;0.80;99.90;;;;;;5051714;28;19972;-49
2022/01/22 09:43:09;;;;;;;;;;;0.70;99.90;;;;;;5051356;28;19925;-50
2022/01/22 09:45:36;;;;;;;;;;;0.80;99.90;;;;;;5051251;28;20395;-50
2022/01/22 09:48:03;;;;;;;;;;;0.80;99.90;;;;;;5050811;28;19932;-48
2022/01/22 09:50:32;;;;;;;;;;;0.70;99.90;;;;;;5051033;28;19924;-48
2022/01/22 09:52:59;;;;;;;;;;;0.80;99.90;;;;;;5050467;28;20466;-47
2022/01/22 09:55:26;;;;;;;;;;;0.90;99.90;;;;;;5049571;28;19937;-47
2022/01/22 09:57:54;;;;;;;;;;;0.90;99.90;;;;;;5049984;28;19924;-49
2022/01/22 10:00:23;;;;;;;;;;;0.90;99.90;;;;;;5050230;28;20280;-48
2022/01/22 10:02:50;;;;;;;;;;;0.90;99.90;;;;;;5051709;28;20008;-48
2022/01/22 10:05:41;;;;;;;;;;;0.80;99.90;;;;;;5051389;28;20345;-49
2022/01/22 10:08:24;;;;;;;;;;;0.90;99.90;;;;;;5029447;28;19978;-47
2022/01/22 10:10:51;;;;;;;;;;;0.90;99.90;;;;;;5049570;28;20023;-48
2022/01/22 10:13:33;;;;;;;;;;;0.90;99.90;;;;;;5031173;28;19933;-48
2022/01/22 10:16:10;;;;;;;;;;;1.00;99.90;;;;;;5033137;28;19925;-47
2022/01/22 10:18:37;;;;;;;;;;;1.10;99.90;;;;;;5050740;28;19925;-49
2022/01/22 10:21:07;;;;;;;;;;;1.20;99.90;;;;;;5050383;28;19976;-48
2022/01/22 10:23:39;;;;;;;;;;;1.30;99.90;;;;;;5050986;28;19991;-47
2022/01/22 10:26:09;;;;;;;;;;;1.30;99.90;;;;;;5050896;28;20327;-48
2022/01/22 10:28:40;;;;;;;;;;;1.40;99.90;;;;;;5050529;28;20271;-48
2022/01/22 10:31:10;;;;;;;;;;;1.50;99.90;;;;;;5050132;28;19932;-48
2022/01/22 10:33:37;;;;;;;;;;;1.60;99.90;;;;;;5050972;28;20070;-48
2022/01/22 10:36:11;;;;;;;;;;;1.70;99.90;;;;;;5050811;28;19929;-48
2022/01/22 10:38:40;;;;;;;;;;;1.60;99.90;;;;;;5049534;28;19932;-48
2022/01/22 10:41:07;;;;;;;;;;;1.80;99.90;;;;;;5049979;28;20016;-49
2022/01/22 10:43:41;;;;;;;;;;;1.80;99.90;;;;;;5050515;28;19956;-47
2022/01/22 10:46:11;;;;;;;;;;;1.90;99.90;;;;;;5030936;28;19929;-48
2022/01/22 10:48:39;;;;;;;;;;;2.10;99.90;;;;;;5065896;22;19989;-50
2022/01/22 10:51:08;;;;;;;;;;;1.90;99.90;;;;;;5091283;28;19924;-50
2022/01/22 10:53:42;;;;;;;;;;;1.80;99.90;;;;;;5091439;28;19929;-50
2022/01/22 10:56:09;;;;;;;;;;;2.00;99.90;;;;;;5091864;28;19930;-51
2022/01/22 10:58:47;;;;;;;;;;;1.80;99.90;;;;;;5091419;28;20022;-51
2022/01/22 11:01:14;;;;;;;;;;;2.00;99.90;;;;;;5090722;28;19939;-51
2022/01/22 11:03:41;;;;;;;;;;;1.90;99.90;;;;;;5091706;28;19924;-51
2022/01/22 11:06:24;;;;;;;;;;;2.20;99.90;;;;;;5091683;28;19924;-51
2022/01/22 11:08:52;;;;;;;;;;;2.10;99.90;;;;;;5095001;28;19970;-51
2022/01/22 11:11:20;;;;;;;;;;;2.00;99.90;;;;;;5094638;28;19936;-50
2022/01/22 11:13:47;;;;;;;;;;;1.90;99.90;;;;;;5095418;28;19928;-51
2022/01/22 11:16:14;;;;;;;;;;;1.90;99.90;;;;;;5095324;28;20060;-52
2022/01/22 11:18:43;;;;;;;;;;;1.80;99.90;;;;;;5095179;28;19970;-51
2022/01/22 11:21:10;;;;;;;;;;;1.90;99.90;;;;;;5094814;28;19928;-51
2022/01/22 11:23:37;;;;;;;;;;;1.70;99.90;;;;;;5095428;28;19947;-51
2022/01/22 11:26:06;;;;;;;;;;;1.80;99.90;;;;;;5095282;28;19993;-51
2022/01/22 11:28:33;;;;;;;;;;;1.90;99.90;;;;;;5094377;28;19928;-52
2022/01/22 11:31:01;;;;;;;;;;;2.10;99.90;;;;;;5094496;28;19985;-51
2022/01/22 11:33:28;;;;;;;;;;;2.10;99.90;;;;;;5095063;28;19924;-50
2022/01/22 11:36:01;;;;;;;;;;;2.00;99.90;;;;;;5094317;28;19973;-51
2022/01/22 11:38:29;;;;;;;;;;;1.80;99.90;;;;;;5093246;28;20420;-50
2022/01/22 11:41:13;;;;;;;;;;;1.80;99.90;;;;;;5094143;28;19970;-51
2022/01/22 11:43:55;;;;;;;;;;;1.80;99.90;;;;;;5093821;28;19924;-52
2022/01/22 11:46:27;;;;;;;;;;;1.70;99.90;;;;;;5093741;28;19928;-51
2022/01/22 11:49:18;;;;;;;;;;;2.00;99.90;;;;;;5092774;28;20401;-51
2022/01/22 11:51:46;;;;;;;;;;;2.20;99.90;;;;;;5072768;28;19928;-51
2022/01/22 11:54:13;;;;;;;;;;;2.20;99.90;;;;;;5093365;28;19924;-52
2022/01/22 11:56:45;;;;;;;;;;;2.10;99.90;;;;;;5089538;28;19925;-51
2022/01/22 11:59:19;;;;;;;;;;;2.10;99.90;;;;;;5089363;28;19924;-52
2022/01/22 12:01:55;;;;;;;;;;;2.20;99.90;;;;;;5093132;28;19925;-52
2022/01/22 12:04:23;;;;;;;;;;;2.50;99.90;;;;;;5092551;28;19931;-51
2022/01/22 12:07:08;;;;;;;;;;;2.60;99.90;;;;;;5093001;28;19956;-51
2022/01/22 12:09:42;;;;;;;;;;;2.50;99.90;;;;;;5092576;28;19936;-51
2022/01/22 12:15:06;;;;;;;;;;;2.60;99.90;;;;;;5060020;28;20008;-53
2022/01/22 12:17:55;;;;;;;;;;;2.50;99.90;;;;;;5091452;28;19931;-51
2022/01/22 12:23:39;;;;;;;;;;;2.60;99.90;;;;;;5058038;28;19935;-51
2022/01/22 12:26:06;;;;;;;;;;;3.00;99.90;;;;;;5092668;28;20282;-51
2022/01/22 12:28:35;;;;;;;;;;;3.00;99.90;;;;;;5093155;28;19925;-51
2022/01/22 12:31:03;;;;;;;;;;;3.00;99.90;;;;;;5093337;28;19978;-51
2022/01/22 12:33:47;;;;;;;;;;;3.00;99.90;;;;;;5093589;28;19924;-51
2022/01/22 12:36:20;;;;;;;;;;;3.10;99.90;;;;;;5093508;28;19931;-51
2022/01/22 12:38:58;;;;;;;;;;;2.90;99.90;;;;;;5089244;28;19993;-51
2022/01/22 12:41:30;;;;;;;;;;;2.80;99.90;;;;;;5093267;28;19931;-51
2022/01/22 12:44:06;;;;;;;;;;;2.70;99.90;;;;;;5093728;28;19924;-51
2022/01/22 12:46:34;;;;;;;;;;;2.60;99.90;;;;;;5092063;28;19932;-51
2022/01/22 12:49:01;;;;;;;;;;;2.60;99.90;;;;;;5093396;28;19932;-51
2022/01/22 12:51:28;;;;;;;;;;;2.50;99.90;;;;;;5092933;28;19928;-52
2022/01/22 12:53:56;;;;;;;;;;;2.60;99.90;;;;;;5092949;28;20334;-52
2022/01/22 12:56:49;;;;;;;;;;;2.60;99.90;;;;;;5092848;28;20340;-51
2022/01/22 12:59:18;;;;;;;;;;;2.50;99.90;;;;;;5091878;28;20312;-51
2022/01/22 13:01:46;;;;;;;;;;;2.50;99.90;;;;;;5092696;28;20377;-51
2022/01/22 13:04:13;;;;;;;;;;;2.50;99.90;;;;;;5082410;28;20044;-52
2022/01/22 13:06:41;;;;;;;;;;;2.70;99.90;;;;;;5085455;28;19979;-51
2022/01/22 13:09:08;;;;;;;;;;;2.70;99.90;;;;;;5075305;28;19932;-51
2022/01/22 13:11:44;;;;;;;;;;;2.50;99.90;;;;;;5094717;28;19924;-52
2022/01/22 13:14:11;;;;;;;;;;;2.50;99.90;;;;;;5091306;28;20365;-52
2022/01/22 13:16:48;;;;;;;;;;;2.50;99.90;;;;;;5092636;28;19924;-52
2022/01/22 13:19:15;;;;;;;;;;;2.50;99.90;;;;;;5091789;28;19928;-51
2022/01/22 13:21:49;;;;;;;;;;;2.30;99.90;;;;;;5093011;28;19928;-51
2022/01/22 13:24:15;;;;;;;;;;;2.30;99.90;;;;;;5092648;28;20380;-51
2022/01/22 13:26:45;;;;;;;;;;;2.40;99.90;;;;;;5092673;28;19928;-51
2022/01/22 13:29:16;;;;;;;;;;;2.50;99.90;;;;;;5090253;28;20347;-51
2022/01/22 13:31:56;;;;;;;;;;;2.30;99.90;;;;;;5091543;28;19924;-51
2022/01/22 13:34:33;;;;;;;;;;;2.50;99.90;;;;;;5092428;28;20015;-51
2022/01/22 13:37:36;;;;;;;;;;;2.60;99.90;;;;;;5072400;28;20373;-51
2022/01/22 13:40:21;;;;;;;;;;;2.60;99.90;;;;;;5079951;28;19924;-51
2022/01/22 13:48:35;;;;;;;;;;;2.70;99.90;;;;;;5091729;28;19970;-51
2022/01/22 13:51:03;;;;;;;;;;;2.60;99.90;;;;;;5091862;28;20332;-51
2022/01/22 13:53:30;;;;;;;;;;;2.80;99.90;;;;;;5092212;28;19928;-52
2022/01/22 13:55:58;;;;;;;;;;;2.70;99.90;;;;;;5092158;28;19924;-51
2022/01/22 13:58:24;;;;;;;;;;;2.60;99.90;;;;;;5090909;28;20413;-52
2022/01/22 14:00:51;;;;;;;;;;;2.60;99.90;;;;;;5091312;28;19924;-51
2022/01/22 14:03:30;;;;;;;;;;;2.70;99.90;;;;;;5092376;28;19928;-52
2022/01/22 14:06:00;;;;;;;;;;;2.70;99.90;;;;;;5091494;28;19924;-52
2022/01/22 14:08:31;;;;;;;;;;;2.60;99.90;;;;;;5091751;28;19968;-51
2022/01/22 14:11:05;;;;;;;;;;;2.50;99.90;;;;;;5091951;28;19924;-51
2022/01/22 14:13:32;;;;;;;;;;;2.70;99.90;;;;;;5091585;28;19977;-51
2022/01/22 14:16:10;;;;;;;;;;;2.70;99.90;;;;;;5096134;28;19939;-51
2022/01/22 14:18:40;;;;;;;;;;;2.80;99.90;;;;;;5102094;28;19928;-51
2022/01/22 14:21:12;;;;;;;;;;;2.70;99.90;;;;;;5085189;28;19928;-51
2022/01/22 14:23:39;;;;;;;;;;;2.70;99.90;;;;;;5097236;28;19928;-52
2022/01/22 14:26:08;;;;;;;;;;;2.70;99.90;;;;;;5092258;28;19931;-52
2022/01/22 14:28:39;;;;;;;;;;;2.70;99.90;;;;;;5091148;28;19924;-52
2022/01/22 14:31:19;;;;;;;;;;;2.70;99.90;;;;;;5091684;28;20354;-51
2022/01/22 14:33:46;;;;;;;;;;;2.80;99.90;;;;;;5073862;28;20352;-52
2022/01/22 14:36:17;;;;;;;;;;;2.60;99.90;;;;;;5091646;28;19924;-51
2022/01/22 14:38:48;;;;;;;;;;;2.50;99.90;;;;;;5091319;28;19993;-51
2022/01/22 14:46:52;;;;;;;;;;;2.20;99.90;;;;;;5095681;28;20414;-50
2022/01/22 14:49:19;;;;;;;;;;;2.30;99.90;;;;;;5094694;28;20447;-51
2022/01/22 14:51:47;;;;;;;;;;;2.40;99.90;;;;;;5093883;28;19924;-51
2022/01/22 14:54:14;;;;;;;;;;;2.40;99.90;;;;;;5094527;28;19928;-50
2022/01/22 14:56:41;;;;;;;;;;;2.30;99.90;;;;;;5094130;28;19928;-51
2022/01/22 14:59:07;;;;;;;;;;;2.20;99.90;;;;;;5094096;28;19932;-51
2022/01/22 15:01:34;;;;;;;;;;;2.10;99.90;;;;;;5094250;28;19924;-51
2022/01/22 15:04:01;;;;;;;;;;;2.10;99.90;;;;;;5094155;28;19924;-51
2022/01/22 15:06:27;;;;;;;;;;;2.20;99.90;;;;;;5089528;28;19981;-50
2022/01/22 15:08:56;;;;;;;;;;;2.20;99.90;;;;;;5093693;28;20301;-50
2022/01/22 15:11:22;;;;;;;;;;;2.20;99.90;;;;;;5093473;28;19977;-51
2022/01/22 15:13:49;;;;;;;;;;;2.20;99.90;;;;;;5093711;28;19955;-51
2022/01/22 15:16:18;;;;;;;;;;;2.20;99.90;;;;;;5093727;28;19928;-51
2022/01/22 15:18:59;;;;;;;;;;;2.20;99.90;;;;;;5093310;28;19938;-51
2022/01/22 15:21:27;;;;;;;;;;;2.10;99.90;;;;;;5094436;28;20381;-51
2022/01/22 15:23:53;;;;;;;;;;;2.10;99.90;;;;;;5094318;28;19947;-51
2022/01/22 15:26:22;;;;;;;;;;;2.10;99.90;;;;;;5094928;28;19993;-51
2022/01/22 15:28:49;;;;;;;;;;;2.10;99.90;;;;;;5094408;28;19924;-51
2022/01/22 15:31:28;;;;;;;;;;;2.20;99.90;;;;;;5094672;28;20333;-51
2022/01/22 15:34:07;;;;;;;;;;;2.00;99.90;;;;;;5094564;28;20016;-50
2022/01/22 15:36:34;;;;;;;;;;;2.20;99.90;;;;;;5095113;28;19924;-51
2022/01/22 15:39:01;;;;;;;;;;;2.20;99.90;;;;;;5093658;28;19924;-51
2022/01/22 15:41:29;;;;;;;;;;;2.10;99.90;;;;;;5095805;28;19973;-51
2022/01/22 15:43:55;;;;;;;;;;;1.90;99.90;;;;;;5094293;28;19993;-51
2022/01/22 15:46:22;;;;;;;;;;;1.90;99.90;;;;;;5094319;28;19985;-51
2022/01/22 15:48:49;;;;;;;;;;;1.90;99.90;;;;;;5095503;28;19928;-51
2022/01/22 15:51:16;;;;;;;;;;;1.90;99.90;;;;;;5115022;28;19923;-51
2022/01/22 15:53:43;;;;;;;;;;;1.90;99.90;;;;;;5106230;28;19931;-51